Search for airport 
image banner adimage banner adimage banner ad
image banner ad

4PA6 - Hiawatha

Located in Starlight, United States

ICAO - 4PA6, IATA -

Data provided by Airmate  

General information

Coordinates: N41°54'54" W75°21'52"
Elevation is 1670 feet MSL.
Magnetic variation is -13° East
View others Airports in Pennsylvania

Operational data

Special qualification required
Current time UTC:
Current local time:
Weather at : KMSV - Sullivan County Intl ( 53 km )
METAR: KMSV 091656Z AUTO VRB06KT 10SM FEW041 12/03 A2999 RMK AO2 SLP160 T01220028
View NOTAMs / SUP AIP / TFR affecting this airport [VIEW]
Communications frequencies: [VIEW]

Runways:

RWY identifierQFULength (ft)Width (ft)SurfaceLDA (ft)
033100100GRASS
213100100GRASS

Airport contact information

Address: Starlight United States

Satellite view of 4PA6